Time;durP1;ratioP1;P1;durP2;ratioP2;P2;SDS_P1;SDS_P2;PMS_P1;PMS_P2;Temp;Humidity;BMP_temperature;BMP_pressure;BME280_temperature;BME280_humidity;BME280_pressure;Samples;Min_cycle;Max_cycle;Signal;HPM_P1;HPM_P2
2023/12/29 00:00:01;;;;;;;37.28;5.95;;;10.00;99.90;;;;;;10497173;28;20043;-72
2023/12/29 00:05:03;;;;;;;35.25;4.28;;;9.90;99.90;;;;;;10499468;28;20071;-70
2023/12/29 00:10:06;;;;;;;35.13;4.97;;;9.90;99.90;;;;;;10489614;28;20171;-72
2023/12/29 00:15:11;;;;;;;;;;;9.90;99.90;;;;;;10497012;28;20048;-71
2023/12/29 00:20:13;;;;;;;23.77;4.63;;;10.00;99.90;;;;;;10499448;28;19927;-71
2023/12/29 00:25:15;;;;;;;32.63;4.80;;;9.90;99.90;;;;;;10493519;28;20795;-72
2023/12/29 00:30:20;;;;;;;28.60;4.73;;;10.00;99.90;;;;;;10513157;28;20359;-72
2023/12/29 00:35:22;;;;;;;30.33;5.05;;;10.10;99.90;;;;;;10504971;28;20048;-70
2023/12/29 00:40:24;;;;;;;32.87;5.10;;;10.10;99.90;;;;;;10514619;28;20062;-70
2023/12/29 00:45:32;;;;;;;33.58;4.63;;;10.10;99.90;;;;;;10508883;28;20085;-71
2023/12/29 00:50:34;;;;;;;36.33;6.88;;;10.20;99.90;;;;;;10516094;28;20483;-70
2023/12/29 00:55:36;;;;;;;23.70;2.60;;;10.10;99.90;;;;;;10492268;28;20063;-71
2023/12/29 01:00:40;;;;;;;26.42;4.78;;;10.20;99.90;;;;;;10524504;28;20438;-71
2023/12/29 01:05:43;;;;;;;29.30;5.13;;;10.20;99.90;;;;;;10517933;28;20048;-72
2023/12/29 01:10:46;;;;;;;31.95;4.63;;;10.20;99.90;;;;;;10512568;28;20059;-72
2023/12/29 01:15:49;;;;;;;22.95;5.38;;;10.20;99.90;;;;;;10514809;28;20043;-72
2023/12/29 01:20:52;;;;;;;24.13;5.00;;;10.20;99.90;;;;;;10518352;28;20491;-72
2023/12/29 01:25:56;;;;;;;27.67;5.10;;;10.20;99.90;;;;;;10515994;28;20736;-71
2023/12/29 01:31:00;;;;;;;20.95;3.45;;;10.30;99.90;;;;;;10510239;28;20048;-71
2023/12/29 01:36:02;;;;;;;15.32;2.17;;;10.30;99.90;;;;;;10518633;28;20048;-70
2023/12/29 01:41:05;;;;;;;33.30;5.03;;;10.30;99.90;;;;;;10518839;28;20574;-72
2023/12/29 01:46:08;;;;;;;26.03;3.67;;;10.30;99.90;;;;;;10516253;28;20047;-74
2023/12/29 01:51:12;;;;;;;26.83;5.20;;;10.30;99.90;;;;;;10519229;28;20435;-72
2023/12/29 01:56:15;;;;;;;19.35;2.65;;;10.40;99.90;;;;;;10516072;28;20044;-72
2023/12/29 02:01:19;;;;;;;31.02;5.15;;;10.50;99.90;;;;;;10509660;28;20054;-72
2023/12/29 02:06:22;;;;;;;37.33;6.65;;;10.40;99.90;;;;;;10522292;28;20450;-72
2023/12/29 02:11:25;;;;;;;40.17;8.30;;;10.40;99.90;;;;;;10520299;28;20415;-70
2023/12/29 02:16:36;;;;;;;43.67;6.85;;;10.40;99.90;;;;;;10514345;28;20044;-72
2023/12/29 02:21:38;;;;;;;46.38;6.05;;;10.30;99.90;;;;;;10516540;28;20047;-71
2023/12/29 02:26:47;;;;;;;52.30;8.17;;;10.40;99.90;;;;;;10515433;28;20453;-71
2023/12/29 02:31:53;;;;;;;42.67;4.72;;;10.40;99.90;;;;;;10516015;28;20081;-71
2023/12/29 02:36:59;;;;;;;35.40;5.38;;;10.40;99.90;;;;;;10519156;28;20795;-72
2023/12/29 02:42:03;;;;;;;72.57;9.98;;;10.30;99.90;;;;;;10512202;28;20734;-71
2023/12/29 02:47:05;;;;;;;47.83;6.63;;;10.20;99.90;;;;;;10516419;28;20051;-70
2023/12/29 02:52:08;;;;;;;62.40;10.45;;;10.20;99.90;;;;;;10493500;28;20052;-71
2023/12/29 02:57:11;;;;;;;69.45;9.20;;;10.20;99.90;;;;;;10507852;28;20048;-71
2023/12/29 03:02:13;;;;;;;56.10;8.07;;;10.20;99.90;;;;;;10507594;28;20419;-71
2023/12/29 03:07:15;;;;;;;56.28;7.65;;;10.10;99.90;;;;;;10513742;28;20870;-72
2023/12/29 03:12:19;;;;;;;51.78;8.43;;;10.20;99.90;;;;;;10506998;28;20098;-71
2023/12/29 03:17:21;;;;;;;45.35;7.13;;;10.20;99.90;;;;;;10491959;28;20036;-70
2023/12/29 03:22:23;;;;;;;53.15;6.88;;;10.30;99.90;;;;;;10515919;28;20058;-70
2023/12/29 03:27:27;;;;;;;91.95;11.27;;;10.10;99.90;;;;;;10511917;28;20444;-69
2023/12/29 03:32:29;;;;;;;70.78;9.15;;;10.20;99.90;;;;;;10519406;28;20192;-70
2023/12/29 03:37:31;;;;;;;50.25;7.97;;;10.20;99.90;;;;;;10508379;28;20781;-70
2023/12/29 03:42:35;;;;;;;45.07;7.77;;;10.30;99.90;;;;;;10508730;28;20101;-70
2023/12/29 03:47:39;;;;;;;51.38;8.18;;;10.30;99.90;;;;;;10502211;28;20048;-69
2023/12/29 03:52:42;;;;;;;54.63;9.25;;;10.20;99.90;;;;;;10505441;28;20040;-70
2023/12/29 04:15:32;;;;;;;70.82;10.55;;;10.10;99.90;;;;;;10541726;27;20131;-70
2023/12/29 04:20:34;;;;;;;50.90;9.35;;;10.10;99.90;;;;;;10545454;28;20081;-70
2023/12/29 04:25:38;;;;;;;69.63;9.82;;;10.30;99.90;;;;;;10546212;28;20320;-71
2023/12/29 04:30:42;;;;;;;61.45;10.20;;;10.20;99.90;;;;;;10539740;28;20051;-70
2023/12/29 04:35:44;;;;;;;58.15;9.75;;;10.20;99.90;;;;;;10541218;28;20055;-72
2023/12/29 04:40:47;;;;;;;66.47;9.93;;;10.20;99.90;;;;;;10546312;28;20056;-71
2023/12/29 04:45:50;;;;;;;51.47;7.55;;;10.30;99.90;;;;;;10544750;28;20411;-70
2023/12/29 04:50:54;;;;;;;63.03;7.13;;;10.20;99.90;;;;;;10542136;28;20058;-70
2023/12/29 04:55:56;;;;;;;78.13;14.15;;;10.20;99.90;;;;;;10543927;28;20055;-70
2023/12/29 05:01:00;;;;;;;53.53;7.40;;;10.20;99.90;;;;;;10538284;28;20421;-70
2023/12/29 05:06:02;;;;;;;49.80;7.20;;;10.30;99.90;;;;;;10536490;28;20051;-72
2023/12/29 05:11:05;;;;;;;61.33;8.97;;;10.40;99.90;;;;;;10550609;28;21439;-71
2023/12/29 05:16:08;;;;;;;71.07;12.00;;;10.40;99.90;;;;;;10543006;28;20059;-71
2023/12/29 05:21:16;;;;;;;68.72;9.50;;;10.30;99.90;;;;;;10542399;28;20048;-71
2023/12/29 05:26:18;;;;;;;43.60;6.55;;;10.30;99.90;;;;;;10517387;28;20145;-71
2023/12/29 05:31:21;;;;;;;68.55;10.52;;;10.40;99.90;;;;;;10513893;28;20047;-71
2023/12/29 05:36:23;;;;;;;59.60;10.02;;;10.40;99.90;;;;;;10504743;28;20056;-72
2023/12/29 05:41:33;;;;;;;46.72;7.95;;;10.40;99.90;;;;;;10509609;28;20545;-72
2023/12/29 05:46:37;;;;;;;38.20;6.82;;;10.30;99.90;;;;;;10511401;28;20093;-72
2023/12/29 05:51:39;;;;;;;39.42;4.63;;;10.40;99.90;;;;;;10502917;28;20055;-71
2023/12/29 05:56:41;;;;;;;43.33;6.20;;;10.20;99.90;;;;;;10504505;28;20461;-70
2023/12/29 06:01:46;;;;;;;53.83;6.95;;;10.20;99.90;;;;;;10505861;28;20478;-72
2023/12/29 06:06:51;;;;;;;35.70;5.50;;;10.30;99.90;;;;;;10507542;28;20055;-71
2023/12/29 06:11:53;;;;;;;44.15;6.40;;;10.20;99.90;;;;;;10504546;28;20419;-71
2023/12/29 06:16:56;;;;;;;37.93;5.43;;;10.30;99.90;;;;;;10503868;28;20056;-72
2023/12/29 06:21:59;;;;;;;38.65;5.90;;;10.30;99.90;;;;;;10515039;28;20734;-70
2023/12/29 06:27:01;;;;;;;24.05;3.88;;;10.30;99.90;;;;;;10508413;28;20051;-71
2023/12/29 06:32:05;;;;;;;11.60;2.85;;;10.40;99.90;;;;;;10501148;28;20051;-71
2023/12/29 06:37:08;;;;;;;36.72;5.60;;;10.40;99.90;;;;;;10500040;28;20094;-71
2023/12/29 06:42:10;;;;;;;42.47;6.20;;;10.40;99.90;;;;;;10501612;28;20059;-72
2023/12/29 06:47:14;;;;;;;24.73;4.38;;;10.50;99.90;;;;;;10508311;28;20056;-71
2023/12/29 06:52:16;;;;;;;33.22;6.40;;;10.40;99.90;;;;;;10505151;28;20048;-72
2023/12/29 06:57:18;;;;;;;36.53;7.10;;;10.60;99.90;;;;;;10490409;28;20094;-73
2023/12/29 07:02:22;;;;;;;46.40;7.10;;;10.50;99.90;;;;;;10503826;28;20048;-74
2023/12/29 07:07:25;;;;;;;40.40;7.72;;;10.40;99.90;;;;;;10507211;28;20051;-73
2023/12/29 07:12:28;;;;;;;32.67;4.57;;;10.60;99.90;;;;;;10498792;28;20795;-70
2023/12/29 07:17:34;;;;;;;28.40;3.88;;;10.70;99.90;;;;;;10501867;28;20063;-72
2023/12/29 07:22:36;;;;;;;25.38;4.13;;;10.70;99.90;;;;;;10500621;28;20047;-72
2023/12/29 07:27:38;;;;;;;21.90;3.65;;;10.60;99.90;;;;;;10501498;28;20059;-72
2023/12/29 07:32:41;;;;;;;22.30;3.63;;;10.60;99.90;;;;;;10496982;28;20044;-72
2023/12/29 07:37:43;;;;;;;19.70;3.58;;;10.60;99.90;;;;;;10496358;28;20052;-72
2023/12/29 07:42:50;;;;;;;24.33;3.93;;;10.70;99.90;;;;;;10490454;28;20172;-72
2023/12/29 07:47:54;;;;;;;21.65;3.10;;;10.60;99.90;;;;;;10492605;28;20043;-71
2023/12/29 07:52:56;;;;;;;13.27;2.08;;;10.60;99.90;;;;;;10515380;27;20150;-73
2023/12/29 07:57:59;;;;;;;17.52;3.42;;;10.50;99.90;;;;;;10491566;28;20051;-72
2023/12/29 08:03:02;;;;;;;12.00;4.20;;;10.50;99.90;;;;;;10501807;28;20052;-72
2023/12/29 08:08:04;;;;;;;19.20;3.53;;;10.60;99.90;;;;;;10504179;28;20110;-73
2023/12/29 08:13:08;;;;;;;16.57;2.43;;;10.60;99.90;;;;;;10494793;28;20138;-72
2023/12/29 08:18:12;;;;;;;17.17;2.38;;;10.50;99.90;;;;;;10497232;28;20044;-72
2023/12/29 08:23:15;;;;;;;14.23;2.90;;;10.80;99.90;;;;;;10504485;28;20161;-72
2023/12/29 08:28:17;;;;;;;16.08;2.45;;;10.70;99.90;;;;;;10497165;28;20044;-72
2023/12/29 08:33:23;;;;;;;19.60;3.30;;;10.60;99.90;;;;;;10499525;28;20067;-71
2023/12/29 08:38:30;;;;;;;20.88;3.67;;;10.80;99.90;;;;;;10500015;28;20450;-73
2023/12/29 08:43:35;;;;;;;25.25;4.72;;;10.80;99.90;;;;;;10499953;28;20048;-72
2023/12/29 08:48:42;;;;;;;16.10;2.58;;;10.70;99.90;;;;;;10486578;28;20051;-73
2023/12/29 08:53:44;;;;;;;22.05;3.42;;;10.70;99.90;;;;;;10497926;28;20899;-72
2023/12/29 08:58:46;;;;;;;20.83;2.75;;;10.70;99.90;;;;;;10502784;28;20217;-73
2023/12/29 09:03:50;;;;;;;27.83;3.90;;;10.80;99.90;;;;;;10511888;28;20857;-72
2023/12/29 09:08:54;;;;;;;23.00;4.35;;;10.80;99.90;;;;;;10508594;28;21221;-73
2023/12/29 09:13:56;;;;;;;28.50;5.10;;;10.80;99.90;;;;;;10504455;28;20109;-73
2023/12/29 09:19:00;;;;;;;20.77;3.97;;;10.80;99.90;;;;;;10511781;28;20842;-73
2023/12/29 09:24:02;;;;;;;16.98;2.78;;;10.90;99.90;;;;;;10501083;28;20075;-73
2023/12/29 09:29:05;;;;;;;39.53;6.07;;;11.00;99.90;;;;;;10498238;28;20079;-73
2023/12/29 09:34:09;;;;;;;33.55;6.30;;;10.90;99.90;;;;;;10513723;28;20040;-73
2023/12/29 09:39:11;;;;;;;27.60;4.70;;;11.00;99.90;;;;;;10501328;28;20113;-73
2023/12/29 09:44:15;;;;;;;29.17;3.93;;;11.00;99.90;;;;;;10499466;28;20047;-72
2023/12/29 09:49:20;;;;;;;27.23;6.40;;;10.90;99.90;;;;;;10500397;28;20890;-72
2023/12/29 09:54:22;;;;;;;33.13;4.40;;;10.90;99.90;;;;;;10497874;28;20044;-73
2023/12/29 09:59:26;;;;;;;41.85;6.38;;;11.20;99.90;;;;;;10504367;28;20086;-74
2023/12/29 10:04:29;;;;;;;66.72;7.15;;;11.00;99.90;;;;;;10494301;28;20135;-73
2023/12/29 10:09:32;;;;;;;32.20;4.38;;;11.00;99.90;;;;;;10497448;28;20100;-73
2023/12/29 10:14:40;;;;;;;42.47;5.65;;;11.00;99.90;;;;;;10487726;28;20325;-73
2023/12/29 10:19:51;;;;;;;33.58;5.53;;;10.90;99.90;;;;;;10499371;28;20056;-73
2023/12/29 10:24:54;;;;;;;44.53;5.65;;;11.10;99.90;;;;;;10487027;28;20052;-73
2023/12/29 10:29:56;;;;;;;38.60;4.53;;;10.90;99.90;;;;;;10487915;28;20052;-73
2023/12/29 10:35:10;;;;;;;53.40;7.50;;;11.00;99.90;;;;;;10502576;28;20625;-74
2023/12/29 10:40:19;;;;;;;34.33;4.63;;;10.80;99.90;;;;;;10501533;28;20048;-74
2023/12/29 10:45:22;;;;;;;52.95;5.25;;;10.90;99.90;;;;;;10498047;28;20163;-73
2023/12/29 10:50:27;;;;;;;26.10;4.70;;;11.10;99.90;;;;;;10507802;28;20051;-74
2023/12/29 10:55:33;;;;;;;43.13;4.38;;;11.10;99.90;;;;;;10503584;28;20040;-73
2023/12/29 11:00:35;;;;;;;38.17;5.18;;;11.10;99.90;;;;;;10504101;28;20131;-72
2023/12/29 11:05:40;;;;;;;45.80;7.00;;;11.00;99.90;;;;;;10514046;28;20048;-73
2023/12/29 11:10:43;;;;;;;42.50;5.07;;;11.00;99.90;;;;;;10506814;28;20094;-73
2023/12/29 11:15:48;;;;;;;39.95;5.97;;;11.00;99.90;;;;;;10496166;28;20552;-73
2023/12/29 11:20:53;;;;;;;47.83;6.40;;;11.10;99.90;;;;;;10513480;28;20992;-72
2023/12/29 11:25:56;;;;;;;40.13;4.20;;;11.00;99.90;;;;;;10512658;28;20416;-73
2023/12/29 11:30:58;;;;;;;44.25;7.22;;;11.00;99.90;;;;;;10515302;28;20724;-73
2023/12/29 11:36:12;;;;;;;39.10;5.53;;;11.10;99.90;;;;;;10518454;28;20059;-74
2023/12/29 11:41:18;;;;;;;;;;;11.10;99.90;;;;;;10515893;28;20048;-73
2023/12/29 11:46:39;;;;;;;35.83;4.60;;;11.00;99.90;;;;;;10509768;28;19933;-73
2023/12/29 11:51:44;;;;;;;43.90;5.65;;;11.10;99.90;;;;;;10506415;28;20055;-74
2023/12/29 11:56:46;;;;;;;28.45;4.68;;;11.10;99.90;;;;;;10507188;28;20173;-74
2023/12/29 12:01:49;;;;;;;41.78;5.30;;;11.20;99.90;;;;;;10506016;28;20054;-74
2023/12/29 12:06:53;;;;;;;34.13;4.78;;;11.20;99.90;;;;;;10520151;28;20040;-73
2023/12/29 12:11:55;;;;;;;27.35;3.40;;;11.00;99.90;;;;;;10507862;28;20060;-73
2023/12/29 12:16:58;;;;;;;26.30;3.92;;;11.10;99.90;;;;;;10510136;28;20051;-73
2023/12/29 12:22:03;;;;;;;29.67;3.65;;;11.10;99.90;;;;;;10509984;28;20059;-73
2023/12/29 12:27:11;;;;;;;27.73;3.22;;;11.20;99.90;;;;;;10505061;28;20047;-72
2023/12/29 12:32:16;;;;;;;22.55;2.95;;;11.30;99.90;;;;;;10500752;28;20163;-72
2023/12/29 12:37:24;;;;;;;40.88;6.60;;;11.20;99.90;;;;;;10517140;28;20044;-74
2023/12/29 12:42:26;;;;;;;37.22;4.65;;;11.20;99.90;;;;;;10507995;28;20051;-72
2023/12/29 12:47:35;;;;;;;28.13;4.35;;;11.10;99.90;;;;;;10502996;28;20051;-73
2023/12/29 12:52:40;;;;;;;25.40;4.30;;;11.30;99.90;;;;;;10513198;28;20076;-66
2023/12/29 12:57:43;;;;;;;21.30;3.80;;;11.20;99.90;;;;;;10506433;28;20144;-73
2023/12/29 13:02:46;;;;;;;21.02;3.22;;;11.20;99.90;;;;;;10512812;28;20451;-72
2023/12/29 13:07:56;;;;;;;19.13;2.88;;;11.40;99.90;;;;;;10509700;28;20059;-74
2023/12/29 13:12:58;;;;;;;28.50;3.22;;;11.30;99.90;;;;;;10502122;28;20927;-72
2023/12/29 13:18:00;;;;;;;16.30;2.77;;;11.30;99.90;;;;;;10509731;28;20626;-73
2023/12/29 13:23:04;;;;;;;22.90;2.97;;;11.30;99.90;;;;;;10505813;28;20151;-73
2023/12/29 13:28:07;;;;;;;26.83;4.03;;;11.40;99.90;;;;;;10513270;28;20059;-74
2023/12/29 13:33:10;;;;;;;;;;;11.30;99.90;;;;;;10510158;28;20524;-74
2023/12/29 13:38:21;;;;;;;24.45;4.15;;;11.50;99.90;;;;;;10514498;28;19981;-74
2023/12/29 13:43:23;;;;;;;27.85;3.30;;;11.30;99.90;;;;;;10507796;28;20146;-77
2023/12/29 13:48:28;;;;;;;37.25;4.43;;;11.50;99.90;;;;;;10511966;28;20195;-76
2023/12/29 13:53:32;;;;;;;36.67;3.95;;;11.40;99.90;;;;;;10510822;28;20051;-75
2023/12/29 13:58:34;;;;;;;39.85;5.35;;;11.50;99.90;;;;;;10508594;28;20048;-75
2023/12/29 14:03:44;;;;;;;39.90;5.45;;;11.30;99.90;;;;;;10509408;28;20048;-75
2023/12/29 14:08:48;;;;;;;42.60;3.78;;;11.40;99.90;;;;;;10492991;28;20086;-74
2023/12/29 14:13:51;;;;;;;41.45;6.53;;;11.20;99.90;;;;;;10515621;28;20067;-75
2023/12/29 14:18:57;;;;;;;42.47;5.40;;;11.20;99.90;;;;;;10516670;28;20518;-77
2023/12/29 14:24:10;;;;;;;29.27;5.35;;;11.30;99.90;;;;;;10505253;28;20173;-71
2023/12/29 14:29:13;;;;;;;29.00;4.13;;;10.90;99.90;;;;;;10504422;28;20060;-73
2023/12/29 14:34:15;;;;;;;37.90;4.85;;;10.80;99.90;;;;;;10511157;28;20732;-72
2023/12/29 14:39:19;;;;;;;43.50;4.35;;;10.80;99.90;;;;;;10511029;28;20062;-72
2023/12/29 14:44:21;;;;;;;56.38;7.72;;;10.70;99.90;;;;;;10510416;28;20044;-73
2023/12/29 14:49:23;;;;;;;43.90;5.85;;;10.80;99.90;;;;;;10504564;28;20047;-73
2023/12/29 14:54:30;;;;;;;56.73;9.00;;;10.70;99.90;;;;;;10510285;28;20048;-73
2023/12/29 14:59:32;;;;;;;41.85;5.43;;;10.50;99.90;;;;;;10505474;28;20047;-72
2023/12/29 15:04:36;;;;;;;35.33;5.07;;;10.70;99.90;;;;;;10490892;28;20044;-74
2023/12/29 15:09:39;;;;;;;39.28;5.97;;;10.60;99.90;;;;;;10515395;28;20124;-73
2023/12/29 15:14:41;;;;;;;50.63;5.75;;;10.70;99.90;;;;;;10503595;28;20075;-73
2023/12/29 15:19:43;;;;;;;36.87;6.03;;;10.60;99.90;;;;;;10488103;28;20052;-73
2023/12/29 15:24:47;;;;;;;33.17;6.20;;;10.60;99.90;;;;;;10482215;28;20132;-72
2023/12/29 15:29:49;;;;;;;31.83;5.10;;;10.60;99.90;;;;;;10507572;28;20086;-72
2023/12/29 15:34:51;;;;;;;28.17;4.45;;;10.60;99.90;;;;;;10507587;28;20079;-71
2023/12/29 15:39:54;;;;;;;35.00;5.07;;;10.80;99.90;;;;;;10508416;28;20122;-71
2023/12/29 15:44:56;;;;;;;45.35;5.15;;;10.80;99.90;;;;;;10512359;28;20435;-70
2023/12/29 15:49:58;;;;;;;38.55;6.60;;;10.60;99.90;;;;;;10504339;28;20877;-72
2023/12/29 15:55:02;;;;;;;27.02;3.92;;;10.40;99.90;;;;;;10508756;28;20773;-70
2023/12/29 16:00:08;;;;;;;16.48;2.80;;;10.40;99.90;;;;;;10510885;28;20093;-71
2023/12/29 16:05:10;;;;;;;22.90;2.90;;;10.40;99.90;;;;;;10504707;28;20810;-70
2023/12/29 16:10:14;;;;;;;17.37;2.87;;;10.20;99.90;;;;;;10501668;28;21085;-69
2023/12/29 16:15:16;;;;;;;25.10;5.40;;;10.20;99.90;;;;;;10503274;28;20396;-70
2023/12/29 16:20:21;;;;;;;14.65;2.88;;;10.40;99.90;;;;;;10501464;28;20056;-72
2023/12/29 16:25:24;;;;;;;14.38;2.08;;;10.10;99.90;;;;;;10499616;28;20051;-70
2023/12/29 16:30:29;;;;;;;18.50;2.15;;;9.50;99.90;;;;;;10495135;28;20632;-72
2023/12/29 16:35:31;;;;;;;12.88;1.70;;;9.90;99.90;;;;;;10498755;28;20221;-71
2023/12/29 16:40:35;;;;;;;14.10;2.55;;;9.90;99.90;;;;;;10495891;28;20059;-71
2023/12/29 16:45:37;;;;;;;23.38;3.10;;;9.50;99.90;;;;;;10497417;28;20047;-71
2023/12/29 16:50:40;;;;;;;28.23;3.15;;;9.40;99.90;;;;;;10493508;28;20158;-71
2023/12/29 16:55:44;;;;;;;;;;;9.20;99.90;;;;;;10492730;28;20052;-71
2023/12/29 17:00:46;;;;;;;;;;;9.20;99.90;;;;;;10493120;28;19928;-70
2023/12/29 17:05:48;;;;;;;35.10;6.10;;;9.40;99.90;;;;;;10486139;28;19927;-71
2023/12/29 17:10:52;;;;;;;19.52;3.67;;;9.40;99.90;;;;;;10491890;28;20530;-71
2023/12/29 17:15:54;;;;;;;22.85;3.42;;;9.40;99.90;;;;;;10500203;28;20064;-71
2023/12/29 17:20:56;;;;;;;31.73;3.87;;;9.30;99.90;;;;;;10498835;28;20062;-71
2023/12/29 17:26:00;;;;;;;28.33;3.50;;;9.40;99.90;;;;;;10507936;28;20740;-71
2023/12/29 17:31:04;;;;;;;22.02;2.13;;;9.40;99.90;;;;;;10504281;28;20048;-71
2023/12/29 17:36:09;;;;;;;17.25;2.40;;;9.10;99.90;;;;;;10509358;28;20036;-71
2023/12/29 17:41:13;;;;;;;17.77;2.70;;;9.00;99.90;;;;;;10514284;28;20627;-72
2023/12/29 17:46:15;;;;;;;13.68;2.92;;;9.10;99.90;;;;;;10508285;28;20128;-70
2023/12/29 17:51:20;;;;;;;12.15;2.33;;;9.20;99.90;;;;;;10508015;28;20109;-71
2023/12/29 17:56:25;;;;;;;10.68;1.80;;;10.20;99.90;;;;;;10503157;28;20067;-72
2023/12/29 18:01:30;;;;;;;10.00;1.98;;;9.60;99.90;;;;;;10506274;28;20059;-67
2023/12/29 18:06:32;;;;;;;10.50;1.67;;;9.20;99.90;;;;;;10513911;28;20119;-72
2023/12/29 18:11:36;;;;;;;12.53;2.40;;;9.00;99.90;;;;;;10505622;28;20067;-70
2023/12/29 18:16:42;;;;;;;7.63;2.13;;;9.10;99.90;;;;;;10510759;28;20055;-70
2023/12/29 18:21:44;;;;;;;4.47;1.70;;;9.00;99.90;;;;;;10512196;28;20052;-73
2023/12/29 18:26:47;;;;;;;8.75;1.60;;;8.80;99.90;;;;;;10500376;28;20086;-73
2023/12/29 18:31:50;;;;;;;6.07;1.40;;;8.90;99.90;;;;;;10507335;28;20212;-73
2023/12/29 18:36:51;;;;;;;16.65;2.45;;;9.00;99.90;;;;;;10509523;28;20074;-73
2023/12/29 18:41:55;;;;;;;12.70;1.70;;;9.00;99.90;;;;;;10503886;28;20051;-73
2023/12/29 18:46:57;;;;;;;7.68;1.05;;;9.00;99.90;;;;;;10503760;28;20051;-74
2023/12/29 18:52:00;;;;;;;8.50;2.58;;;9.00;99.90;;;;;;10502277;28;20431;-72
2023/12/29 18:57:04;;;;;;;16.92;2.35;;;9.00;99.90;;;;;;10491089;28;20044;-72
2023/12/29 19:02:07;;;;;;;10.13;2.05;;;9.00;99.90;;;;;;10490252;28;20193;-73
2023/12/29 19:07:10;;;;;;;;;;;9.10;99.90;;;;;;10506786;28;20805;-74
2023/12/29 19:12:14;;;;;;;10.48;1.60;;;9.20;99.90;;;;;;10487133;28;19924;-73
2023/12/29 19:17:16;;;;;;;0.40;0.40;;;9.20;99.90;;;;;;10450110;28;20097;-75
2023/12/29 19:22:19;;;;;;;0.10;0.10;;;8.90;99.90;;;;;;10463006;28;20056;-71
2023/12/29 19:27:23;;;;;;;0.17;0.17;;;8.90;99.90;;;;;;10459763;28;20044;-71
2023/12/29 19:32:25;;;;;;;0.20;0.20;;;8.90;99.90;;;;;;10460475;28;20056;-71
2023/12/29 19:37:27;;;;;;;0.20;0.20;;;8.90;99.90;;;;;;10452380;28;20044;-69
2023/12/29 19:42:30;;;;;;;0.30;0.30;;;8.80;99.90;;;;;;10454316;28;20045;-71
2023/12/29 19:47:33;;;;;;;0.52;0.52;;;9.10;99.90;;;;;;10459394;28;20048;-71
2023/12/29 19:52:35;;;;;;;0.10;0.10;;;9.30;99.90;;;;;;10461031;28;20047;-68
2023/12/29 19:57:38;;;;;;;0.13;0.13;;;9.20;99.90;;;;;;10461052;28;20055;-69
2023/12/29 20:02:40;;;;;;;0.10;0.10;;;9.20;99.90;;;;;;10459316;28;20051;-67
2023/12/29 20:07:43;;;;;;;0.20;0.20;;;9.10;99.90;;;;;;10454699;28;20065;-68
2023/12/29 20:12:46;;;;;;;0.20;0.20;;;8.00;99.90;;;;;;10457555;28;20077;-68
2023/12/29 20:17:49;;;;;;;0.20;0.20;;;7.90;99.90;;;;;;10470908;28;20471;-68
2023/12/29 20:22:52;;;;;;;0.20;0.20;;;8.10;99.90;;;;;;10458547;28;20059;-68
2023/12/29 20:27:55;;;;;;;0.20;0.20;;;8.20;99.90;;;;;;10459101;28;20155;-67
2023/12/29 20:32:58;;;;;;;0.10;0.10;;;8.20;99.90;;;;;;10465679;28;20404;-68
2023/12/29 20:38:01;;;;;;;12.32;3.00;;;8.50;99.90;;;;;;10441872;28;20447;-69
2023/12/29 20:43:04;;;;;;;14.40;2.67;;;8.70;99.90;;;;;;10457951;28;20567;-68
2023/12/29 20:48:07;;;;;;;15.93;2.42;;;9.20;99.90;;;;;;10453887;28;20152;-68
2023/12/29 20:53:10;;;;;;;;;;;9.10;99.90;;;;;;10463371;28;20051;-66
2023/12/29 20:58:13;;;;;;;20.02;4.03;;;9.20;99.90;;;;;;10458872;28;19932;-70
2023/12/29 21:03:16;;;;;;;11.68;1.80;;;9.10;99.90;;;;;;10454724;28;20392;-67
2023/12/29 21:08:18;;;;;;;15.33;3.57;;;8.90;99.90;;;;;;10469687;28;20048;-68
2023/12/29 21:13:22;;;;;;;10.10;2.10;;;8.70;99.90;;;;;;10460312;28;20462;-68
2023/12/29 21:18:24;;;;;;;13.38;2.45;;;8.80;99.90;;;;;;10462889;28;20788;-67
2023/12/29 21:23:27;;;;;;;13.18;2.85;;;9.00;99.90;;;;;;10454819;28;20049;-70
2023/12/29 21:28:30;;;;;;;11.13;1.93;;;9.00;99.90;;;;;;10467700;28;20553;-68
2023/12/29 21:33:32;;;;;;;12.68;1.95;;;9.00;99.90;;;;;;10464271;28;20045;-68
2023/12/29 21:38:35;;;;;;;12.05;1.50;;;9.00;99.90;;;;;;10451544;28;20124;-69
2023/12/29 21:43:38;;;;;;;12.35;3.67;;;9.00;99.90;;;;;;10479767;28;20049;-67
2023/12/29 21:48:40;;;;;;;19.42;3.05;;;8.90;99.90;;;;;;10468038;28;20077;-68
2023/12/29 21:53:43;;;;;;;18.50;3.22;;;8.90;99.90;;;;;;10473595;28;20060;-69
2023/12/29 21:58:48;;;;;;;12.23;2.35;;;8.90;99.90;;;;;;10469084;28;20476;-67
2023/12/29 22:03:50;;;;;;;13.48;2.45;;;9.00;99.90;;;;;;10462864;28;20063;-66
2023/12/29 22:08:52;;;;;;;12.32;1.85;;;8.80;99.90;;;;;;10458219;28;20044;-67
2023/12/29 22:13:56;;;;;;;38.50;9.50;;;8.70;99.90;;;;;;10468235;28;20474;-68
2023/12/29 22:18:58;;;;;;;10.48;2.88;;;8.70;99.90;;;;;;10462862;28;20547;-67
2023/12/29 22:24:00;;;;;;;19.90;3.67;;;8.60;99.90;;;;;;10442271;28;20633;-67
2023/12/29 22:29:04;;;;;;;20.25;3.78;;;8.60;99.90;;;;;;10473220;28;20056;-67
2023/12/29 22:34:06;;;;;;;17.05;2.70;;;8.60;99.90;;;;;;10458990;28;20064;-68
2023/12/29 22:39:09;;;;;;;24.27;3.03;;;8.60;99.90;;;;;;10453618;28;20055;-68
2023/12/29 22:44:13;;;;;;;19.55;2.80;;;8.50;99.90;;;;;;10457057;28;20479;-68
2023/12/29 22:49:15;;;;;;;11.95;3.45;;;8.50;99.90;;;;;;10472752;28;20524;-68
2023/12/29 22:54:18;;;;;;;15.95;3.15;;;8.50;99.90;;;;;;10454601;28;20842;-70
2023/12/29 22:59:21;;;;;;;19.58;2.17;;;8.70;99.90;;;;;;10448476;28;20623;-70
2023/12/29 23:04:23;;;;;;;16.02;2.78;;;8.60;99.90;;;;;;10459216;28;20443;-70
2023/12/29 23:09:26;;;;;;;10.63;1.95;;;8.60;99.90;;;;;;10462190;28;20044;-70
2023/12/29 23:14:31;;;;;;;15.63;3.67;;;8.60;99.90;;;;;;10480758;28;20055;-72
2023/12/29 23:19:33;;;;;;;13.43;3.13;;;8.50;99.90;;;;;;10485976;28;20124;-71
2023/12/29 23:24:37;;;;;;;13.50;3.45;;;8.50;99.90;;;;;;10469962;28;20096;-71
2023/12/29 23:29:41;;;;;;;17.20;2.90;;;8.60;99.90;;;;;;10461057;28;20056;-71
2023/12/29 23:34:44;;;;;;;18.05;3.15;;;8.50;99.90;;;;;;10455965;28;20052;-70
2023/12/29 23:39:46;;;;;;;16.98;2.33;;;8.40;99.90;;;;;;10460255;28;20099;-70
2023/12/29 23:44:49;;;;;;;13.13;3.00;;;8.40;99.90;;;;;;10470820;28;20500;-71
2023/12/29 23:49:53;;;;;;;17.67;2.63;;;8.30;99.90;;;;;;10472729;28;20060;-71
2023/12/29 23:54:55;;;;;;;11.98;2.47;;;8.40;99.90;;;;;;10464090;28;20045;-71
2023/12/29 23:59:59;;;;;;;11.30;2.45;;;8.30;99.90;;;;;;10457274;28;20052;-71
